sensor_id;sensor_type;location;lat;lon;timestamp;P1;durP1;ratioP1;P2;durP2;ratioP2
32964;SDS011;19317;48.226;11.686;2023-04-25T00:01:07;2.40;;;2.20;;
32964;SDS011;19317;48.226;11.686;2023-04-25T00:05:58;2.10;;;2.00;;
32964;SDS011;19317;48.226;11.686;2023-04-25T00:10:49;2.40;;;2.20;;
32964;SDS011;19317;48.226;11.686;2023-04-25T00:15:39;2.73;;;2.17;;
32964;SDS011;19317;48.226;11.686;2023-04-25T00:20:30;2.83;;;2.13;;
32964;SDS011;19317;48.226;11.686;2023-04-25T00:25:20;2.97;;;2.10;;
32964;SDS011;19317;48.226;11.686;2023-04-25T00:30:11;2.50;;;2.30;;
32964;SDS011;19317;48.226;11.686;2023-04-25T00:35:03;2.57;;;2.33;;
32964;SDS011;19317;48.226;11.686;2023-04-25T00:39:54;2.23;;;2.03;;
32964;SDS011;19317;48.226;11.686;2023-04-25T00:44:44;2.63;;;2.43;;
32964;SDS011;19317;48.226;11.686;2023-04-25T00:49:35;2.60;;;2.30;;
32964;SDS011;19317;48.226;11.686;2023-04-25T00:54:25;3.30;;;2.10;;
32964;SDS011;19317;48.226;11.686;2023-04-25T00:59:16;2.57;;;2.37;;
32964;SDS011;19317;48.226;11.686;2023-04-25T02:04:16;2.30;;;2.10;;
32964;SDS011;19317;48.226;11.686;2023-04-25T02:09:06;5.83;;;3.60;;
32964;SDS011;19317;48.226;11.686;2023-04-25T02:13:57;22.30;;;7.70;;
32964;SDS011;19317;48.226;11.686;2023-04-25T02:18:47;21.93;;;8.87;;
32964;SDS011;19317;48.226;11.686;2023-04-25T02:23:38;8.90;;;4.40;;
32964;SDS011;19317;48.226;11.686;2023-04-25T02:28:28;4.80;;;2.90;;
32964;SDS011;19317;48.226;11.686;2023-04-25T02:33:19;3.30;;;3.00;;
32964;SDS011;19317;48.226;11.686;2023-04-25T02:38:09;4.10;;;2.70;;
32964;SDS011;19317;48.226;11.686;2023-04-25T02:43:00;2.73;;;2.17;;
32964;SDS011;19317;48.226;11.686;2023-04-25T02:47:50;2.57;;;2.37;;
32964;SDS011;19317;48.226;11.686;2023-04-25T02:52:40;2.53;;;2.33;;
32964;SDS011;19317;48.226;11.686;2023-04-25T02:57:31;2.57;;;2.10;;
32964;SDS011;19317;48.226;11.686;2023-04-25T03:02:21;2.60;;;2.40;;
32964;SDS011;19317;48.226;11.686;2023-04-25T03:07:12;2.50;;;2.30;;
32964;SDS011;19317;48.226;11.686;2023-04-25T03:12:02;2.40;;;2.20;;
32964;SDS011;19317;48.226;11.686;2023-04-25T03:16:53;4.83;;;2.30;;
32964;SDS011;19317;48.226;11.686;2023-04-25T03:21:44;3.50;;;2.50;;
32964;SDS011;19317;48.226;11.686;2023-04-25T03:26:34;2.60;;;2.40;;
32964;SDS011;19317;48.226;11.686;2023-04-25T03:31:25;4.60;;;2.77;;
32964;SDS011;19317;48.226;11.686;2023-04-25T03:36:15;2.50;;;2.30;;
32964;SDS011;19317;48.226;11.686;2023-04-25T03:41:06;2.40;;;2.20;;
32964;SDS011;19317;48.226;11.686;2023-04-25T03:45:56;2.63;;;2.33;;
32964;SDS011;19317;48.226;11.686;2023-04-25T03:50:47;2.37;;;2.10;;
32964;SDS011;19317;48.226;11.686;2023-04-25T03:55:38;2.37;;;2.20;;
32964;SDS011;19317;48.226;11.686;2023-04-25T04:00:28;2.80;;;2.10;;
32964;SDS011;19317;48.226;11.686;2023-04-25T04:05:18;2.73;;;2.20;;
32964;SDS011;19317;48.226;11.686;2023-04-25T04:10:09;2.60;;;2.17;;
32964;SDS011;19317;48.226;11.686;2023-04-25T04:15:01;4.17;;;2.20;;
32964;SDS011;19317;48.226;11.686;2023-04-25T04:19:54;3.30;;;2.50;;
32964;SDS011;19317;48.226;11.686;2023-04-25T04:24:45;3.00;;;2.23;;
32964;SDS011;19317;48.226;11.686;2023-04-25T04:29:35;2.17;;;2.07;;
32964;SDS011;19317;48.226;11.686;2023-04-25T04:34:26;2.17;;;1.90;;
32964;SDS011;19317;48.226;11.686;2023-04-25T04:39:16;2.23;;;2.00;;
32964;SDS011;19317;48.226;11.686;2023-04-25T04:44:06;2.23;;;2.07;;
32964;SDS011;19317;48.226;11.686;2023-04-25T04:48:57;1.90;;;1.80;;
32964;SDS011;19317;48.226;11.686;2023-04-25T04:53:47;2.20;;;2.00;;
32964;SDS011;19317;48.226;11.686;2023-04-25T04:58:38;2.20;;;1.93;;
32964;SDS011;19317;48.226;11.686;2023-04-25T05:03:28;2.00;;;1.90;;
32964;SDS011;19317;48.226;11.686;2023-04-25T05:08:19;3.37;;;2.30;;
32964;SDS011;19317;48.226;11.686;2023-04-25T05:13:09;2.30;;;1.93;;
32964;SDS011;19317;48.226;11.686;2023-04-25T05:17:59;2.00;;;1.90;;
32964;SDS011;19317;48.226;11.686;2023-04-25T05:22:50;3.37;;;2.10;;
32964;SDS011;19317;48.226;11.686;2023-04-25T05:27:40;2.67;;;2.17;;
32964;SDS011;19317;48.226;11.686;2023-04-25T05:32:31;2.90;;;2.30;;
32964;SDS011;19317;48.226;11.686;2023-04-25T05:37:21;2.20;;;2.00;;
32964;SDS011;19317;48.226;11.686;2023-04-25T05:42:12;2.67;;;2.30;;
32964;SDS011;19317;48.226;11.686;2023-04-25T05:47:02;2.13;;;2.03;;
32964;SDS011;19317;48.226;11.686;2023-04-25T05:51:53;2.60;;;2.30;;
32964;SDS011;19317;48.226;11.686;2023-04-25T05:56:43;2.60;;;2.40;;
32964;SDS011;19317;48.226;11.686;2023-04-25T06:01:34;2.50;;;2.30;;
32964;SDS011;19317;48.226;11.686;2023-04-25T06:06:24;6.13;;;2.87;;
32964;SDS011;19317;48.226;11.686;2023-04-25T06:11:14;3.60;;;2.30;;
32964;SDS011;19317;48.226;11.686;2023-04-25T06:16:05;2.50;;;2.30;;
32964;SDS011;19317;48.226;11.686;2023-04-25T06:20:56;3.77;;;2.57;;
32964;SDS011;19317;48.226;11.686;2023-04-25T06:25:46;4.27;;;2.70;;
32964;SDS011;19317;48.226;11.686;2023-04-25T06:30:36;2.70;;;2.47;;
32964;SDS011;19317;48.226;11.686;2023-04-25T06:35:27;4.93;;;2.60;;
32964;SDS011;19317;48.226;11.686;2023-04-25T06:40:18;4.33;;;2.93;;
32964;SDS011;19317;48.226;11.686;2023-04-25T06:45:09;3.23;;;2.30;;
32964;SDS011;19317;48.226;11.686;2023-04-25T06:49:59;2.50;;;2.30;;
32964;SDS011;19317;48.226;11.686;2023-04-25T06:54:50;3.87;;;2.50;;
32964;SDS011;19317;48.226;11.686;2023-04-25T06:59:40;2.63;;;2.43;;
32964;SDS011;19317;48.226;11.686;2023-04-25T07:04:31;2.73;;;2.53;;
32964;SDS011;19317;48.226;11.686;2023-04-25T07:09:21;2.53;;;2.33;;
32964;SDS011;19317;48.226;11.686;2023-04-25T07:14:12;4.47;;;2.30;;
32964;SDS011;19317;48.226;11.686;2023-04-25T07:19:02;4.53;;;2.73;;
32964;SDS011;19317;48.226;11.686;2023-04-25T07:23:53;2.37;;;2.17;;
32964;SDS011;19317;48.226;11.686;2023-04-25T07:28:43;3.60;;;2.50;;
32964;SDS011;19317;48.226;11.686;2023-04-25T07:33:34;2.73;;;2.53;;
32964;SDS011;19317;48.226;11.686;2023-04-25T07:38:24;3.33;;;2.60;;
32964;SDS011;19317;48.226;11.686;2023-04-25T07:43:16;3.20;;;2.47;;
32964;SDS011;19317;48.226;11.686;2023-04-25T07:48:06;3.63;;;2.60;;
32964;SDS011;19317;48.226;11.686;2023-04-25T07:52:57;4.67;;;2.50;;
32964;SDS011;19317;48.226;11.686;2023-04-25T07:57:47;3.23;;;2.50;;
32964;SDS011;19317;48.226;11.686;2023-04-25T08:02:38;3.87;;;2.67;;
32964;SDS011;19317;48.226;11.686;2023-04-25T08:07:28;2.87;;;2.47;;
32964;SDS011;19317;48.226;11.686;2023-04-25T08:12:19;2.30;;;2.07;;
32964;SDS011;19317;48.226;11.686;2023-04-25T08:17:09;2.90;;;2.60;;
32964;SDS011;19317;48.226;11.686;2023-04-25T08:22:00;2.63;;;2.40;;
32964;SDS011;19317;48.226;11.686;2023-04-25T08:26:50;3.07;;;2.30;;
32964;SDS011;19317;48.226;11.686;2023-04-25T08:31:41;3.90;;;2.10;;
32964;SDS011;19317;48.226;11.686;2023-04-25T08:36:31;2.63;;;2.30;;
32964;SDS011;19317;48.226;11.686;2023-04-25T08:41:22;2.70;;;2.50;;
32964;SDS011;19317;48.226;11.686;2023-04-25T08:46:13;2.40;;;2.20;;
32964;SDS011;19317;48.226;11.686;2023-04-25T08:51:07;3.10;;;2.50;;
32964;SDS011;19317;48.226;11.686;2023-04-25T08:56:00;2.40;;;2.20;;
32964;SDS011;19317;48.226;11.686;2023-04-25T09:00:51;2.30;;;2.10;;
32964;SDS011;19317;48.226;11.686;2023-04-25T09:05:42;2.70;;;2.30;;
32964;SDS011;19317;48.226;11.686;2023-04-25T09:15:28;2.17;;;1.97;;
32964;SDS011;19317;48.226;11.686;2023-04-25T09:20:19;3.83;;;2.30;;
32964;SDS011;19317;48.226;11.686;2023-04-25T09:25:10;2.77;;;2.40;;
32964;SDS011;19317;48.226;11.686;2023-04-25T09:30:01;2.23;;;1.93;;
32964;SDS011;19317;48.226;11.686;2023-04-25T09:34:53;2.93;;;2.47;;
32964;SDS011;19317;48.226;11.686;2023-04-25T09:39:45;1.90;;;1.70;;
32964;SDS011;19317;48.226;11.686;2023-04-25T09:44:37;1.77;;;1.67;;
32964;SDS011;19317;48.226;11.686;2023-04-25T09:49:38;1.90;;;1.80;;
32964;SDS011;19317;48.226;11.686;2023-04-25T09:54:29;2.40;;;2.20;;
32964;SDS011;19317;48.226;11.686;2023-04-25T09:59:21;2.33;;;1.93;;
32964;SDS011;19317;48.226;11.686;2023-04-25T10:04:12;2.40;;;2.20;;
32964;SDS011;19317;48.226;11.686;2023-04-25T10:09:03;2.47;;;2.00;;
32964;SDS011;19317;48.226;11.686;2023-04-25T10:13:55;3.67;;;2.00;;
32964;SDS011;19317;48.226;11.686;2023-04-25T10:18:46;2.33;;;2.03;;
32964;SDS011;19317;48.226;11.686;2023-04-25T10:23:36;2.27;;;2.07;;
32964;SDS011;19317;48.226;11.686;2023-04-25T10:28:28;2.20;;;2.00;;
32964;SDS011;19317;48.226;11.686;2023-04-25T10:33:18;2.97;;;2.27;;
32964;SDS011;19317;48.226;11.686;2023-04-25T10:38:22;2.20;;;2.00;;
32964;SDS011;19317;48.226;11.686;2023-04-25T10:48:54;2.07;;;1.87;;
32964;SDS011;19317;48.226;11.686;2023-04-25T10:58:45;1.80;;;1.70;;
32964;SDS011;19317;48.226;11.686;2023-04-25T11:03:42;1.87;;;1.70;;
32964;SDS011;19317;48.226;11.686;2023-04-25T11:08:47;3.10;;;1.60;;
32964;SDS011;19317;48.226;11.686;2023-04-25T11:13:39;1.67;;;1.57;;
32964;SDS011;19317;48.226;11.686;2023-04-25T11:18:29;2.17;;;1.93;;
32964;SDS011;19317;48.226;11.686;2023-04-25T11:23:20;2.13;;;1.60;;
32964;SDS011;19317;48.226;11.686;2023-04-25T11:28:10;2.17;;;1.87;;
32964;SDS011;19317;48.226;11.686;2023-04-25T11:33:01;1.90;;;1.80;;
32964;SDS011;19317;48.226;11.686;2023-04-25T11:37:51;2.10;;;2.00;;
32964;SDS011;19317;48.226;11.686;2023-04-25T11:42:46;2.07;;;1.80;;
32964;SDS011;19317;48.226;11.686;2023-04-25T11:47:37;2.17;;;1.93;;
32964;SDS011;19317;48.226;11.686;2023-04-25T11:52:40;2.10;;;2.00;;
32964;SDS011;19317;48.226;11.686;2023-04-25T11:57:33;2.07;;;1.93;;
32964;SDS011;19317;48.226;11.686;2023-04-25T12:02:24;3.57;;;2.10;;
32964;SDS011;19317;48.226;11.686;2023-04-25T12:07:15;2.03;;;1.90;;
32964;SDS011;19317;48.226;11.686;2023-04-25T12:12:05;2.40;;;2.20;;
32964;SDS011;19317;48.226;11.686;2023-04-25T12:17:00;2.33;;;2.23;;
32964;SDS011;19317;48.226;11.686;2023-04-25T12:21:52;1.90;;;1.80;;
32964;SDS011;19317;48.226;11.686;2023-04-25T12:26:46;2.73;;;1.90;;
32964;SDS011;19317;48.226;11.686;2023-04-25T12:31:40;1.80;;;1.70;;
32964;SDS011;19317;48.226;11.686;2023-04-25T12:36:31;1.93;;;1.83;;
32964;SDS011;19317;48.226;11.686;2023-04-25T12:41:22;2.10;;;2.00;;
32964;SDS011;19317;48.226;11.686;2023-04-25T12:46:12;1.80;;;1.70;;
32964;SDS011;19317;48.226;11.686;2023-04-25T12:51:03;1.93;;;1.83;;
32964;SDS011;19317;48.226;11.686;2023-04-25T12:55:53;1.97;;;1.87;;
32964;SDS011;19317;48.226;11.686;2023-04-25T13:00:44;2.30;;;2.10;;
32964;SDS011;19317;48.226;11.686;2023-04-25T13:05:35;3.03;;;2.00;;
32964;SDS011;19317;48.226;11.686;2023-04-25T13:10:25;2.40;;;2.20;;
32964;SDS011;19317;48.226;11.686;2023-04-25T13:15:16;2.20;;;2.10;;
32964;SDS011;19317;48.226;11.686;2023-04-25T13:20:07;1.90;;;1.80;;
32964;SDS011;19317;48.226;11.686;2023-04-25T13:24:58;2.00;;;1.90;;
32964;SDS011;19317;48.226;11.686;2023-04-25T13:29:48;1.80;;;1.70;;
32964;SDS011;19317;48.226;11.686;2023-04-25T13:34:39;1.70;;;1.60;;
32964;SDS011;19317;48.226;11.686;2023-04-25T13:39:29;1.73;;;1.63;;
32964;SDS011;19317;48.226;11.686;2023-04-25T13:44:19;1.80;;;1.70;;
32964;SDS011;19317;48.226;11.686;2023-04-25T13:49:10;1.90;;;1.80;;
32964;SDS011;19317;48.226;11.686;2023-04-25T13:54:00;1.87;;;1.77;;
32964;SDS011;19317;48.226;11.686;2023-04-25T13:58:51;2.03;;;1.80;;
32964;SDS011;19317;48.226;11.686;2023-04-25T14:03:41;1.90;;;1.80;;
32964;SDS011;19317;48.226;11.686;2023-04-25T14:08:32;1.70;;;1.60;;
32964;SDS011;19317;48.226;11.686;2023-04-25T14:13:22;1.80;;;1.70;;
32964;SDS011;19317;48.226;11.686;2023-04-25T14:18:12;1.67;;;1.57;;
32964;SDS011;19317;48.226;11.686;2023-04-25T14:23:03;2.23;;;1.83;;
32964;SDS011;19317;48.226;11.686;2023-04-25T14:27:53;2.10;;;2.00;;
32964;SDS011;19317;48.226;11.686;2023-04-25T14:32:44;2.30;;;1.97;;
32964;SDS011;19317;48.226;11.686;2023-04-25T14:37:35;2.30;;;2.10;;
32964;SDS011;19317;48.226;11.686;2023-04-25T14:42:25;2.03;;;1.90;;
32964;SDS011;19317;48.226;11.686;2023-04-25T14:47:16;3.20;;;1.93;;
32964;SDS011;19317;48.226;11.686;2023-04-25T14:52:06;2.27;;;2.17;;
32964;SDS011;19317;48.226;11.686;2023-04-25T14:56:57;2.20;;;2.00;;
32964;SDS011;19317;48.226;11.686;2023-04-25T15:01:47;2.27;;;2.17;;
32964;SDS011;19317;48.226;11.686;2023-04-25T15:06:38;2.17;;;2.00;;
32964;SDS011;19317;48.226;11.686;2023-04-25T15:11:29;1.87;;;1.77;;
32964;SDS011;19317;48.226;11.686;2023-04-25T15:16:19;2.10;;;1.90;;
32964;SDS011;19317;48.226;11.686;2023-04-25T15:21:10;1.87;;;1.77;;
32964;SDS011;19317;48.226;11.686;2023-04-25T15:26:00;1.83;;;1.73;;
32964;SDS011;19317;48.226;11.686;2023-04-25T15:30:51;2.00;;;1.90;;
32964;SDS011;19317;48.226;11.686;2023-04-25T15:35:41;2.03;;;1.93;;
32964;SDS011;19317;48.226;11.686;2023-04-25T15:40:32;1.90;;;1.80;;
32964;SDS011;19317;48.226;11.686;2023-04-25T15:45:23;2.00;;;1.90;;
32964;SDS011;19317;48.226;11.686;2023-04-25T15:50:14;2.20;;;2.00;;
32964;SDS011;19317;48.226;11.686;2023-04-25T15:55:05;2.40;;;2.20;;
32964;SDS011;19317;48.226;11.686;2023-04-25T15:59:56;2.00;;;1.90;;
32964;SDS011;19317;48.226;11.686;2023-04-25T16:04:46;2.40;;;2.20;;
32964;SDS011;19317;48.226;11.686;2023-04-25T16:09:37;2.50;;;2.30;;
32964;SDS011;19317;48.226;11.686;2023-04-25T16:14:28;2.20;;;2.03;;
32964;SDS011;19317;48.226;11.686;2023-04-25T16:19:18;2.47;;;2.27;;
32964;SDS011;19317;48.226;11.686;2023-04-25T16:24:09;2.27;;;2.17;;
32964;SDS011;19317;48.226;11.686;2023-04-25T16:29:01;2.50;;;2.30;;
32964;SDS011;19317;48.226;11.686;2023-04-25T16:33:53;2.63;;;2.43;;
32964;SDS011;19317;48.226;11.686;2023-04-25T16:38:43;2.87;;;2.50;;
32964;SDS011;19317;48.226;11.686;2023-04-25T16:43:34;3.13;;;2.83;;
32964;SDS011;19317;48.226;11.686;2023-04-25T16:48:24;4.50;;;2.90;;
32964;SDS011;19317;48.226;11.686;2023-04-25T16:53:15;3.73;;;3.23;;
32964;SDS011;19317;48.226;11.686;2023-04-25T16:58:05;3.40;;;3.10;;
32964;SDS011;19317;48.226;11.686;2023-04-25T17:02:56;3.17;;;2.60;;
32964;SDS011;19317;48.226;11.686;2023-04-25T17:07:46;2.97;;;2.20;;
32964;SDS011;19317;48.226;11.686;2023-04-25T17:12:37;3.10;;;2.80;;
32964;SDS011;19317;48.226;11.686;2023-04-25T17:17:27;3.27;;;2.83;;
32964;SDS011;19317;48.226;11.686;2023-04-25T17:22:17;3.53;;;3.20;;
32964;SDS011;19317;48.226;11.686;2023-04-25T17:27:09;4.03;;;2.63;;
32964;SDS011;19317;48.226;11.686;2023-04-25T17:32:00;3.57;;;3.10;;
32964;SDS011;19317;48.226;11.686;2023-04-25T17:36:50;3.70;;;3.30;;
32964;SDS011;19317;48.226;11.686;2023-04-25T17:41:40;3.73;;;3.40;;
32964;SDS011;19317;48.226;11.686;2023-04-25T17:46:31;3.60;;;3.17;;
32964;SDS011;19317;48.226;11.686;2023-04-25T17:51:22;4.50;;;3.20;;
32964;SDS011;19317;48.226;11.686;2023-04-25T17:56:12;4.63;;;3.50;;
32964;SDS011;19317;48.226;11.686;2023-04-25T18:01:03;3.70;;;3.33;;
32964;SDS011;19317;48.226;11.686;2023-04-25T18:05:53;3.13;;;2.80;;
32964;SDS011;19317;48.226;11.686;2023-04-25T18:10:44;2.67;;;2.47;;
32964;SDS011;19317;48.226;11.686;2023-04-25T18:15:35;2.97;;;2.77;;
32964;SDS011;19317;48.226;11.686;2023-04-25T18:20:25;2.53;;;2.30;;
32964;SDS011;19317;48.226;11.686;2023-04-25T18:25:16;2.20;;;2.00;;
32964;SDS011;19317;48.226;11.686;2023-04-25T18:30:07;2.93;;;2.63;;
32964;SDS011;19317;48.226;11.686;2023-04-25T18:34:59;3.03;;;2.50;;
32964;SDS011;19317;48.226;11.686;2023-04-25T18:39:50;2.57;;;2.37;;
32964;SDS011;19317;48.226;11.686;2023-04-25T18:44:40;2.63;;;2.40;;
32964;SDS011;19317;48.226;11.686;2023-04-25T18:49:31;3.07;;;2.80;;
32964;SDS011;19317;48.226;11.686;2023-04-25T18:54:22;3.27;;;2.97;;
32964;SDS011;19317;48.226;11.686;2023-04-25T18:59:13;2.90;;;2.60;;
32964;SDS011;19317;48.226;11.686;2023-04-25T19:04:03;3.50;;;2.93;;
32964;SDS011;19317;48.226;11.686;2023-04-25T19:08:54;2.90;;;2.70;;
32964;SDS011;19317;48.226;11.686;2023-04-25T19:13:45;3.87;;;3.20;;
32964;SDS011;19317;48.226;11.686;2023-04-25T19:18:36;4.03;;;3.07;;
32964;SDS011;19317;48.226;11.686;2023-04-25T19:23:26;3.87;;;3.20;;
32964;SDS011;19317;48.226;11.686;2023-04-25T19:28:17;4.10;;;3.07;;
32964;SDS011;19317;48.226;11.686;2023-04-25T19:33:08;3.60;;;3.30;;
32964;SDS011;19317;48.226;11.686;2023-04-25T19:37:58;4.13;;;3.73;;
32964;SDS011;19317;48.226;11.686;2023-04-25T19:42:49;3.77;;;3.37;;
32964;SDS011;19317;48.226;11.686;2023-04-25T19:47:39;3.40;;;3.10;;
32964;SDS011;19317;48.226;11.686;2023-04-25T19:52:30;3.47;;;3.17;;
32964;SDS011;19317;48.226;11.686;2023-04-25T19:57:20;3.40;;;3.10;;
32964;SDS011;19317;48.226;11.686;2023-04-25T20:02:11;3.50;;;2.97;;
32964;SDS011;19317;48.226;11.686;2023-04-25T20:07:01;4.37;;;3.10;;
32964;SDS011;19317;48.226;11.686;2023-04-25T20:11:52;3.40;;;3.10;;
32964;SDS011;19317;48.226;11.686;2023-04-25T20:16:42;3.37;;;3.07;;
32964;SDS011;19317;48.226;11.686;2023-04-25T20:21:33;3.63;;;3.27;;
32964;SDS011;19317;48.226;11.686;2023-04-25T20:26:23;4.13;;;3.13;;
32964;SDS011;19317;48.226;11.686;2023-04-25T20:31:13;3.23;;;2.97;;
32964;SDS011;19317;48.226;11.686;2023-04-25T20:36:04;4.27;;;3.27;;
32964;SDS011;19317;48.226;11.686;2023-04-25T20:40:54;3.60;;;3.30;;
32964;SDS011;19317;48.226;11.686;2023-04-25T20:45:45;4.00;;;3.30;;
32964;SDS011;19317;48.226;11.686;2023-04-25T20:50:35;3.57;;;3.27;;
32964;SDS011;19317;48.226;11.686;2023-04-25T20:55:26;3.53;;;3.20;;
32964;SDS011;19317;48.226;11.686;2023-04-25T21:00:17;4.40;;;3.97;;
32964;SDS011;19317;48.226;11.686;2023-04-25T21:05:08;3.63;;;3.33;;
32964;SDS011;19317;48.226;11.686;2023-04-25T21:09:59;3.67;;;3.37;;
32964;SDS011;19317;48.226;11.686;2023-04-25T21:14:49;3.97;;;3.40;;
32964;SDS011;19317;48.226;11.686;2023-04-25T21:19:39;4.70;;;3.47;;
32964;SDS011;19317;48.226;11.686;2023-04-25T21:24:30;3.50;;;3.17;;
32964;SDS011;19317;48.226;11.686;2023-04-25T21:29:20;3.93;;;3.47;;
32964;SDS011;19317;48.226;11.686;2023-04-25T21:34:11;3.53;;;3.23;;
32964;SDS011;19317;48.226;11.686;2023-04-25T21:39:01;4.13;;;3.77;;
32964;SDS011;19317;48.226;11.686;2023-04-25T21:43:52;4.20;;;3.37;;
32964;SDS011;19317;48.226;11.686;2023-04-25T21:48:42;4.97;;;3.50;;
32964;SDS011;19317;48.226;11.686;2023-04-25T21:53:32;3.90;;;3.50;;
32964;SDS011;19317;48.226;11.686;2023-04-25T21:58:23;6.07;;;3.60;;
32964;SDS011;19317;48.226;11.686;2023-04-25T22:03:13;3.57;;;3.27;;
32964;SDS011;19317;48.226;11.686;2023-04-25T22:08:04;4.30;;;3.57;;
32964;SDS011;19317;48.226;11.686;2023-04-25T22:12:54;3.83;;;3.43;;
32964;SDS011;19317;48.226;11.686;2023-04-25T22:17:45;4.67;;;4.20;;
32964;SDS011;19317;48.226;11.686;2023-04-25T22:22:35;5.40;;;4.07;;
32964;SDS011;19317;48.226;11.686;2023-04-25T22:27:26;4.00;;;3.60;;
32964;SDS011;19317;48.226;11.686;2023-04-25T22:32:16;4.13;;;3.73;;
32964;SDS011;19317;48.226;11.686;2023-04-25T22:37:07;4.53;;;4.13;;
32964;SDS011;19317;48.226;11.686;2023-04-25T22:41:57;4.07;;;3.67;;
32964;SDS011;19317;48.226;11.686;2023-04-25T22:46:48;4.50;;;4.10;;
32964;SDS011;19317;48.226;11.686;2023-04-25T22:51:38;5.20;;;3.90;;
32964;SDS011;19317;48.226;11.686;2023-04-25T22:56:29;4.97;;;4.43;;
32964;SDS011;19317;48.226;11.686;2023-04-25T23:01:19;4.90;;;4.40;;
32964;SDS011;19317;48.226;11.686;2023-04-25T23:06:10;5.30;;;4.33;;
32964;SDS011;19317;48.226;11.686;2023-04-25T23:11:06;4.63;;;4.20;;
32964;SDS011;19317;48.226;11.686;2023-04-25T23:16:03;5.70;;;4.40;;
32964;SDS011;19317;48.226;11.686;2023-04-25T23:20:56;6.23;;;5.30;;
32964;SDS011;19317;48.226;11.686;2023-04-25T23:25:47;5.80;;;4.50;;
32964;SDS011;19317;48.226;11.686;2023-04-25T23:30:37;6.27;;;4.90;;
32964;SDS011;19317;48.226;11.686;2023-04-25T23:35:28;6.30;;;5.30;;
32964;SDS011;19317;48.226;11.686;2023-04-25T23:40:18;5.57;;;5.00;;
32964;SDS011;19317;48.226;11.686;2023-04-25T23:45:09;5.10;;;4.57;;
32964;SDS011;19317;48.226;11.686;2023-04-25T23:49:59;5.07;;;4.23;;
32964;SDS011;19317;48.226;11.686;2023-04-25T23:54:50;4.80;;;4.40;;
32964;SDS011;19317;48.226;11.686;2023-04-25T23:59:41;5.03;;;4.13;;
